LUDLAM THOROFARE AT SEA ISLE CITY HADS current weather conditions

sailwx.info

Wind from 297 at 6 knots gusting 9

Air temperature 3.1° C
Dewpoint -1.1° C

Last reported at 2019-Dec-11 19:00 UTC.
Time now 2019-Dec-11 20:01 UTC

Location: N 39°09' W 074°42'.
View on Google Maps.

See reports from other nearby stations

  
Tides and Currents Weather Stations Pressure Air Temp Water Temp Dewpoint Dewpoint Depression Visibility Wind Speed Wind Dir Waves Ship Positions
date/time (UTC)wind fromknots sea level pressurealtimeterstation pressurevisibilityair tempwater tempwave heightnotes
2019-Dec-11 19:00 297 6 gusting 9 3.1
2019-Dec-11 18:54 279 5 gusting 9 3.1
2019-Dec-11 18:48 289 5 gusting 8 3.1
2019-Dec-11 18:42 301 7 gusting 10 3.2
2019-Dec-11 18:36 291 6 gusting 10 3.0
2019-Dec-11 18:30 276 7 gusting 12 2.9
2019-Dec-11 18:24 286 8 gusting 11 3.0
2019-Dec-11 18:18 294 8 gusting 14 3.0
2019-Dec-11 18:12 303 9 gusting 13 2.9
2019-Dec-11 18:06 304 9 gusting 13 2.9
2019-Dec-11 18:00 286 10 gusting 15 2.8
2019-Dec-11 17:54 289 10 gusting 14 2.7
2019-Dec-11 17:48 294 9 gusting 13 2.7
2019-Dec-11 17:42 290 9 gusting 13 2.6
2019-Dec-11 17:36 287 8 gusting 13 2.7
2019-Dec-11 17:30 283 7 gusting 11 2.5
2019-Dec-11 17:24 301 8 gusting 13 2.4
2019-Dec-11 17:18 304 7 gusting 12 2.4
2019-Dec-11 17:12 302 8 gusting 12 2.3
2019-Dec-11 17:06 303 9 gusting 15 2.1
2019-Dec-11 17:00 286 9 gusting 13 2.0
2019-Dec-11 16:54 289 9 gusting 13 1.9
2019-Dec-11 16:48 297 9 gusting 16 1.7
2019-Dec-11 16:42 300 8 gusting 11 1.7
2019-Dec-11 16:36 303 8 gusting 12 1.7
2019-Dec-11 16:30 299 9 gusting 13 1.5
2019-Dec-11 16:24 293 10 gusting 14 1.5
2019-Dec-11 16:18 301 10 gusting 16 1.4
2019-Dec-11 16:12 293 9 gusting 13 1.4
2019-Dec-11 16:06 301 8 gusting 12 1.4
2019-Dec-11 16:00 292 7 gusting 10 1.3
2019-Dec-11 15:54 297 7 gusting 11 1.3
2019-Dec-11 15:48 303 7 gusting 13 1.2
2019-Dec-11 15:42 289 7 gusting 11 1.2
2019-Dec-11 15:36 286 7 gusting 12 1.1
2019-Dec-11 15:30 286 7 gusting 12 1.1
2019-Dec-11 15:24 289 6 gusting 9 1.0
2019-Dec-11 15:18 286 6 gusting 11 1.0
2019-Dec-11 15:12 284 7 gusting 11 1.0
2019-Dec-11 15:06 284 7 gusting 11 1.0
2019-Dec-11 15:00 279 6 gusting 10 1.0
2019-Dec-11 14:54 276 7 gusting 11 0.9
2019-Dec-11 14:48 279 7 gusting 9 0.9
2019-Dec-11 14:42 275 7 gusting 11 0.8
2019-Dec-11 14:36 276 7 gusting 13 0.8
2019-Dec-11 14:30 273 7 gusting 11 0.8
2019-Dec-11 14:24 276 6 gusting 10 0.8
2019-Dec-11 14:18 273 6 gusting 10 0.8
2019-Dec-11 14:12 275 6 gusting 11 0.8
2019-Dec-11 14:06 277 7 gusting 11 0.7
2019-Dec-11 14:00 276 6 gusting 10 0.7
2019-Dec-11 13:54 276 5 gusting 8 0.7
2019-Dec-11 13:48 278 5 gusting 8 0.8
2019-Dec-11 13:42 277 5 gusting 8 0.7
2019-Dec-11 13:36 287 6 gusting 10 0.7
2019-Dec-11 13:30 277 7 gusting 11 0.7
2019-Dec-11 13:24 279 6 gusting 10 0.7
2019-Dec-11 13:18 276 5 gusting 9 0.6
2019-Dec-11 13:12 276 6 gusting 9 0.6
2019-Dec-11 13:06 272 5 gusting 8 0.6
2019-Dec-11 13:00 275 5 gusting 9 0.5
2019-Dec-11 12:54 276 5 gusting 8 0.4
2019-Dec-11 12:48 277 5 gusting 8 0.5
2019-Dec-11 12:42 239 60 gusting 70 0.4
2019-Dec-11 12:36 273 66 gusting 68 0.4
2019-Dec-11 12:30 0.4
2019-Dec-11 12:24 0.4
2019-Dec-11 12:18 0.4
2019-Dec-11 12:12 0.4
2019-Dec-11 12:06 0.4
2019-Dec-11 12:00 255 67 gusting 67 0.4
2019-Dec-11 11:54 275 67 gusting 72 0.4
2019-Dec-11 11:48 328 67 gusting 72 0.3
2019-Dec-11 11:42 305 22 gusting 72 0.4
2019-Dec-11 11:36 285 5 gusting 10 0.5
2019-Dec-11 11:30 274 5 gusting 8 0.6
2019-Dec-11 11:24 277 5 gusting 8 0.7
2019-Dec-11 11:18 279 6 gusting 10 0.8
2019-Dec-11 11:12 283 7 gusting 11 1.1
2019-Dec-11 11:06 285 7 gusting 10 1.3
2019-Dec-11 11:00 294 8 gusting 13 1.5
2019-Dec-11 10:54 296 7 gusting 12 1.6
2019-Dec-11 10:48 287 7 gusting 11 1.7
2019-Dec-11 10:42 290 8 gusting 12 1.7
2019-Dec-11 10:36 293 8 gusting 12 1.7
2019-Dec-11 10:30 291 8 gusting 12 1.8
2019-Dec-11 10:24 292 9 gusting 15 1.9
2019-Dec-11 10:18 296 6 gusting 9 2.0
2019-Dec-11 10:12 309 7 gusting 14 2.0
2019-Dec-11 10:06 306 8 gusting 12 2.0
2019-Dec-11 10:00 301 10 gusting 16 2.0
2019-Dec-11 09:54 304 11 gusting 17 2.1
2019-Dec-11 09:48 299 10 gusting 14 2.1
2019-Dec-11 09:42 303 10 gusting 15 2.2
2019-Dec-11 09:36 303 11 gusting 16 2.3
2019-Dec-11 09:30 289 11 gusting 16 2.4
2019-Dec-11 09:24 287 9 gusting 16 2.5
2019-Dec-11 09:18 279 8 gusting 15 2.6
2019-Dec-11 09:12 277 8 gusting 12 2.6
2019-Dec-11 09:06 282 8 gusting 13 2.7
2019-Dec-11 09:00 280 8 gusting 13 2.8
2019-Dec-11 08:54 290 9 gusting 15 2.9
2019-Dec-11 08:48 290 8 gusting 15 3.1
2019-Dec-11 08:42 300 8 gusting 13 3.1
2019-Dec-11 08:36 300 9 gusting 14 3.2
2019-Dec-11 08:30 300 8 gusting 13 3.3
2019-Dec-11 08:24 298 9 gusting 14 3.3
2019-Dec-11 08:18 297 10 gusting 16 3.3
2019-Dec-11 08:12 302 11 gusting 16 3.3
2019-Dec-11 08:06 298 10 gusting 17 3.3
2019-Dec-11 08:00 304 11 gusting 21 3.3
2019-Dec-11 07:54 306 8 gusting 16 3.4
2019-Dec-11 07:48 304 7 gusting 11 3.6
2019-Dec-11 07:42 308 8 gusting 12 3.7
2019-Dec-11 07:36 303 8 gusting 14 3.9
2019-Dec-11 07:30 297 9 gusting 14 3.9
2019-Dec-11 07:24 306 10 gusting 14 4.0
2019-Dec-11 07:18 304 8 gusting 13 4.3
2019-Dec-11 07:12 303 10 gusting 15 4.3
2019-Dec-11 07:06 301 10 gusting 15 4.4
2019-Dec-11 07:00 295 9 gusting 14 4.5
2019-Dec-11 06:54 289 10 gusting 16 4.5
2019-Dec-11 06:48 278 9 gusting 15 4.6
2019-Dec-11 06:42 284 8 gusting 14 4.7
2019-Dec-11 06:36 283 8 gusting 12 4.8
2019-Dec-11 06:30 287 7 gusting 12 4.9
2019-Dec-11 06:24 286 8 gusting 12 4.9
2019-Dec-11 06:18 280 9 gusting 17 4.9
2019-Dec-11 06:12 272 6 gusting 12 5.1
2019-Dec-11 06:06 278 7 gusting 13 5.2
2019-Dec-11 06:00 280 6 gusting 10 5.3
2019-Dec-11 05:54 286 6 gusting 10 5.2
2019-Dec-11 05:48 297 6 gusting 10 5.3
2019-Dec-11 05:42 308 8 gusting 11 5.3
2019-Dec-11 05:36 309 6 gusting 11 5.5
2019-Dec-11 05:30 289 6 gusting 12 5.5
2019-Dec-11 05:24 284 7 gusting 11 5.6
2019-Dec-11 05:18 287 7 gusting 10 5.7
2019-Dec-11 05:12 280 9 gusting 13 5.7
2019-Dec-11 05:06 279 9 gusting 14 5.8
2019-Dec-11 05:00 281 9 gusting 14 5.9
2019-Dec-11 04:54 282 9 gusting 14 6.0
2019-Dec-11 04:48 286 10 gusting 17 6.0
2019-Dec-11 04:42 284 9 gusting 14 6.2
2019-Dec-11 04:36 286 9 gusting 15 6.2
2019-Dec-11 04:30 299 10 gusting 15 6.2
2019-Dec-11 04:24 300 13 gusting 20 6.3
2019-Dec-11 04:18 302 14 gusting 21 6.4
2019-Dec-11 04:12 306 12 gusting 17 6.5
2019-Dec-11 04:06 310 13 gusting 19 6.8
2019-Dec-11 04:00 317 7 gusting 11 7.1
2019-Dec-11 03:54 306 9 gusting 13 7.1
2019-Dec-11 03:48 300 11 gusting 18 7.1
2019-Dec-11 03:42 292 11 gusting 17 7.3
2019-Dec-11 03:36 298 14 gusting 22 7.4
2019-Dec-11 03:30 302 14 gusting 22 7.7
2019-Dec-11 03:24 305 13 gusting 20 8.0
2019-Dec-11 03:18 303 10 gusting 18 8.2
2019-Dec-11 03:12 310 7 gusting 13 8.4
2019-Dec-11 03:06 306 8 gusting 12 8.5
2019-Dec-11 03:00 303 10 gusting 16 8.6
2019-Dec-11 02:54 305 11 gusting 15 8.8
2019-Dec-11 02:48 305 11 gusting 18 9.0
2019-Dec-11 02:42 297 11 gusting 17 10.0
2019-Dec-11 02:36 292 10 gusting 15 10.1
2019-Dec-11 02:30 284 10 gusting 17 10.1
2019-Dec-11 02:24 290 12 gusting 18 10.3
2019-Dec-11 02:18 289 13 gusting 22 10.5
2019-Dec-11 02:12 287 12 gusting 19 10.5
2019-Dec-11 02:06 287 10 gusting 17 10.6
2019-Dec-11 02:00 286 9 gusting 18 10.7
2019-Dec-11 01:54 291 11 gusting 19 11.1
2019-Dec-11 01:48 298 9 gusting 21 11.1
2019-Dec-11 01:42 281 9 gusting 16 11.2
2019-Dec-11 01:36 271 9 gusting 14 11.4
2019-Dec-11 01:30 271 8 gusting 15 11.6
2019-Dec-11 01:24 270 6 gusting 11 11.7
2019-Dec-11 01:18 269 7 gusting 13 11.8
2019-Dec-11 01:12 270 6 gusting 14 11.9
2019-Dec-11 01:06 269 7 gusting 10 11.9
2019-Dec-11 01:00 269 6 gusting 12 12.0
2019-Dec-11 00:54 270 5 gusting 9 12.0
2019-Dec-11 00:48 274 5 gusting 8 12.0
2019-Dec-11 00:42 272 6 gusting 11 12.1
2019-Dec-11 00:36 274 5 gusting 9 12.1
2019-Dec-11 00:30 278 6 gusting 11 12.2
2019-Dec-11 00:24 272 6 gusting 11 12.4
2019-Dec-11 00:18 272 7 gusting 12 12.4
2019-Dec-11 00:12 271 7 gusting 12 12.5
2019-Dec-11 00:06 273 6 gusting 11 12.5
2019-Dec-11 00:00 273 6 gusting 11 12.6
2019-Dec-10 23:54 274 5 gusting 10 12.7
2019-Dec-10 23:48 272 5 gusting 10 12.8
2019-Dec-10 23:42 270 6 gusting 9 12.9
2019-Dec-10 23:36 270 5 gusting 8 12.9
2019-Dec-10 23:30 270 4 gusting 7 12.9
2019-Dec-10 23:24 277 5 gusting 7 12.9
2019-Dec-10 23:18 284 5 gusting 8 12.9
2019-Dec-10 23:12 270 5 gusting 8 12.9
2019-Dec-10 23:06 273 4 gusting 7 12.9
2019-Dec-10 23:00 272 3 gusting 6 12.9
2019-Dec-10 22:54 276 4 gusting 8 12.9
2019-Dec-10 22:48 273 5 gusting 11 13.0
2019-Dec-10 22:42 272 7 gusting 11 13.0
2019-Dec-10 22:36 273 8 gusting 12 13.0
2019-Dec-10 22:30 282 8 gusting 13 13.5
2019-Dec-10 22:24 276 7 gusting 15 14.0
2019-Dec-10 22:18 271 5 gusting 10 14.0
2019-Dec-10 22:12 270 6 gusting 11 14.0
2019-Dec-10 22:06 269 7 gusting 11 14.0
2019-Dec-10 22:00 270 6 gusting 13 14.0
2019-Dec-10 21:54 271 8 gusting 12 14.2
2019-Dec-10 21:48 270 8 gusting 12 14.5
2019-Dec-10 21:42 273 7 gusting 13 14.8
2019-Dec-10 21:36 269 6 gusting 12 15.0
2019-Dec-10 21:30 260 3 gusting 8 15.0
2019-Dec-10 21:24 204 4 gusting 9 14.9
2019-Dec-10 21:18 198 5 gusting 8 14.9
2019-Dec-10 21:12 201 5 gusting 8 15.0
2019-Dec-10 21:06 198 5 gusting 8 15.0
2019-Dec-10 21:00 201 5 gusting 8 15.1
2019-Dec-10 20:54 203 5 gusting 9 15.0
2019-Dec-10 20:48 202 5 gusting 10 15.1
2019-Dec-10 20:42 200 5 gusting 9 15.1
2019-Dec-10 20:36 205 6 gusting 11 15.2
2019-Dec-10 20:30 202 5 gusting 11 15.2
2019-Dec-10 20:24 199 5 gusting 8 15.1
2019-Dec-10 20:18 202 6 gusting 10 15.2
2019-Dec-10 20:12 202 6 gusting 10 15.3
2019-Dec-10 20:06 204 5 gusting 10 15.3
2019-Dec-10 20:00 204 6 gusting 9 15.4
2019-Dec-10 19:54 205 6 gusting 11 15.4
2019-Dec-10 19:48 202 7 gusting 15 15.4
2019-Dec-10 19:42 207 7 gusting 13 15.6
2019-Dec-10 19:36 206 7 gusting 14 15.7
2019-Dec-10 19:30 207 8 gusting 17 15.8
2019-Dec-10 19:24 211 7 gusting 14 16.0
2019-Dec-10 19:18 205 9 gusting 17 16.2
2019-Dec-10 19:12 207 8 gusting 17 16.1
2019-Dec-10 19:06 195 7 gusting 17 15.1
2019-Dec-10 19:00 179 5 gusting 9 15.2
2019-Dec-10 18:54 171 5 gusting 10 15.2
2019-Dec-10 18:48 172 3 gusting 6 15.3
2019-Dec-10 18:42 176 4 gusting 7 15.4
2019-Dec-10 18:36 180 5 gusting 7 15.4
2019-Dec-10 18:30 177 4 gusting 8 15.4
2019-Dec-10 18:24 183 6 gusting 10 15.5
2019-Dec-10 18:18 180 5 gusting 11 15.5
2019-Dec-10 18:12 179 5 gusting 8 15.4
2019-Dec-10 18:06 172 5 gusting 10 15.2
2019-Dec-10 18:00 178 5 gusting 10 15.0
2019-Dec-10 17:54 179 6 gusting 13 14.9
2019-Dec-10 17:48 181 7 gusting 11 14.9
2019-Dec-10 17:42 178 5 gusting 10 14.7
2019-Dec-10 17:36 172 5 gusting 11 14.5
2019-Dec-10 17:30 178 5 gusting 10 14.3
2019-Dec-10 17:24 182 5 gusting 8 14.2
2019-Dec-10 17:18 181 6 gusting 12 14.1
2019-Dec-10 17:12 181 7 gusting 11 13.9
2019-Dec-10 17:06 181 7 gusting 12 13.8
2019-Dec-10 17:00 173 5 gusting 9 13.7
2019-Dec-10 16:54 180 7 gusting 13 13.7
2019-Dec-10 16:48 179 6 gusting 12 13.7
2019-Dec-10 16:42 182 6 gusting 11 13.7
2019-Dec-10 16:36 181 7 gusting 13 13.6
2019-Dec-10 16:30 184 7 gusting 13 13.7
2019-Dec-10 16:24 179 7 gusting 13 13.9
2019-Dec-10 16:18 172 6 gusting 12 13.8
2019-Dec-10 16:12 180 7 gusting 13 13.9
2019-Dec-10 16:06 173 7 gusting 13 13.9
2019-Dec-10 16:00 178 7 gusting 14 14.0
2019-Dec-10 15:54 174 7 gusting 14 13.9
2019-Dec-10 15:48 177 7 gusting 14 13.9
2019-Dec-10 15:42 174 7 gusting 15 14.1
2019-Dec-10 15:36 181 7 gusting 14 14.2
2019-Dec-10 15:30 175 7 gusting 13 14.3
2019-Dec-10 15:24 181 8 gusting 16 14.5
2019-Dec-10 15:18 181 8 gusting 14 14.7
2019-Dec-10 15:12 173 7 gusting 13 14.8
2019-Dec-10 15:06 178 7 gusting 12 15.0
2019-Dec-10 15:00 181 9 gusting 16 14.9
2019-Dec-10 14:54 183 9 gusting 17 14.9
2019-Dec-10 14:48 183 10 gusting 17 14.9
2019-Dec-10 14:42 185 9 gusting 15 14.7
2019-Dec-10 14:36 182 10 gusting 17 14.6
2019-Dec-10 14:30 185 12 gusting 17 14.6
2019-Dec-10 14:24 186 11 gusting 19 14.5
2019-Dec-10 14:18 185 11 gusting 23 14.4
2019-Dec-10 14:12 183 10 gusting 15 14.3
2019-Dec-10 14:06 181 9 gusting 15 14.0
2019-Dec-10 14:00 182 9 gusting 14 13.8
2019-Dec-10 13:54 182 9 gusting 16 13.8
2019-Dec-10 13:48 184 10 gusting 15 13.8
2019-Dec-10 13:42 185 11 gusting 19 13.8
2019-Dec-10 13:36 182 10 gusting 15 13.5
2019-Dec-10 13:30 186 9 gusting 14 13.0
2019-Dec-10 13:24 183 8 gusting 15 12.8
2019-Dec-10 13:18 179 8 gusting 14 12.9
2019-Dec-10 13:12 175 7 gusting 14 12.9
2019-Dec-10 13:06 174 7 gusting 12 12.9
2019-Dec-10 13:00 174 7 gusting 15 12.9
2019-Dec-10 12:54 179 8 gusting 13 13.0
2019-Dec-10 12:48 181 7 gusting 14 13.3
2019-Dec-10 12:42 183 8 gusting 14 13.8
2019-Dec-10 12:36 181 9 gusting 17 14.0
2019-Dec-10 12:30 181 9 gusting 17 14.2
2019-Dec-10 12:24 184 11 gusting 17 14.2
2019-Dec-10 12:18 185 11 gusting 17 14.2
2019-Dec-10 12:12 185 12 gusting 18 14.1
2019-Dec-10 12:06 184 11 gusting 17 14.0
2019-Dec-10 12:00 184 12 gusting 18 14.0
2019-Dec-10 11:54 184 10 gusting 17 14.0
2019-Dec-10 11:48 186 11 gusting 17 13.9
2019-Dec-10 11:42 183 11 gusting 17 13.9
2019-Dec-10 11:36 184 11 gusting 18 14.0
2019-Dec-10 11:30 184 11 gusting 17 13.9
2019-Dec-10 11:24 181 10 gusting 14 13.8
2019-Dec-10 11:18 182 10 gusting 16 13.9
2019-Dec-10 11:12 183 10 gusting 17 13.9
2019-Dec-10 11:06 183 10 gusting 15 13.9
2019-Dec-10 11:00 183 10 gusting 16 13.8
2019-Dec-10 10:54 182 9 gusting 16 13.9
2019-Dec-10 10:48 181 11 gusting 17 14.0
2019-Dec-10 10:42 181 10 gusting 18 14.0
2019-Dec-10 10:36 182 10 gusting 17 13.9
2019-Dec-10 10:30 181 10 gusting 16 13.9
2019-Dec-10 10:24 181 9 gusting 17 13.9
2019-Dec-10 10:18 181 9 gusting 14 14.0
2019-Dec-10 10:12 182 9 gusting 16 14.1
2019-Dec-10 10:06 182 10 gusting 15 14.1
2019-Dec-10 10:00 182 11 gusting 18 14.0
2019-Dec-10 09:54 179 10 gusting 16 13.9
2019-Dec-10 09:48 183 11 gusting 17 13.9
2019-Dec-10 09:42 183 11 gusting 17 13.8
2019-Dec-10 09:36 182 10 gusting 15 13.7
2019-Dec-10 09:30 182 9 gusting 14 13.7
2019-Dec-10 09:24 182 10 gusting 15 13.7
2019-Dec-10 09:18 184 10 gusting 16 13.7
2019-Dec-10 09:12 183 10 gusting 16 13.7
2019-Dec-10 09:06 183 10 gusting 16 13.7
2019-Dec-10 09:00 183 10 gusting 15 13.8
2019-Dec-10 08:54 184 9 gusting 15 13.8
2019-Dec-10 08:48 185 9 gusting 14 13.8
2019-Dec-10 08:42 185 10 gusting 19 13.8
2019-Dec-10 08:36 187 10 gusting 16 13.7
2019-Dec-10 08:30 188 10 gusting 17 13.7
2019-Dec-10 08:24 184 10 gusting 16 13.5
2019-Dec-10 08:18 183 8 gusting 13 13.6
2019-Dec-10 08:12 176 8 gusting 16 13.7
2019-Dec-10 08:06 181 9 gusting 16 13.8
2019-Dec-10 08:00 181 10 gusting 18 13.9
2019-Dec-10 07:54 185 11 gusting 17 13.9
2019-Dec-10 07:48 190 10 gusting 18 13.9
2019-Dec-10 07:42 188 11 gusting 16 14.0
2019-Dec-10 07:36 185 10 gusting 19 14.1
2019-Dec-10 07:30 186 11 gusting 18 14.1
2019-Dec-10 07:24 184 10 gusting 16 14.0
2019-Dec-10 07:18 183 10 gusting 16 14.2
2019-Dec-10 07:12 184 10 gusting 15 14.3
2019-Dec-10 07:06 185 10 gusting 17 14.3
2019-Dec-10 07:00 182 11 gusting 17 14.5
2019-Dec-10 06:54 185 11 gusting 19 14.6
2019-Dec-10 06:48 185 11 gusting 17 14.4
2019-Dec-10 06:42 185 11 gusting 19 14.2
2019-Dec-10 06:36 183 10 gusting 17 14.0
2019-Dec-10 06:30 182 10 gusting 16 13.8
2019-Dec-10 06:24 183 9 gusting 15 14.0
2019-Dec-10 06:18 184 10 gusting 16 14.1
2019-Dec-10 06:12 186 10 gusting 19 14.3
2019-Dec-10 06:06 186 10 gusting 17 14.4
2019-Dec-10 06:00 185 11 gusting 18 14.4
2019-Dec-10 05:54 180 10 gusting 17 14.5
2019-Dec-10 05:48 184 10 gusting 16 14.7
2019-Dec-10 05:42 184 12 gusting 19 15.0
2019-Dec-10 05:36 188 11 gusting 21 15.1
2019-Dec-10 05:30 190 11 gusting 20 15.2
2019-Dec-10 05:24 193 12 gusting 18 15.2
2019-Dec-10 05:18 193 13 gusting 19 15.1
2019-Dec-10 05:12 193 12 gusting 21 14.9
2019-Dec-10 05:06 193 11 gusting 17 14.7
2019-Dec-10 05:00 193 10 gusting 19 14.4
2019-Dec-10 04:54 187 9 gusting 15 14.3
2019-Dec-10 04:48 188 10 gusting 16 14.1
2019-Dec-10 04:42 188 8 gusting 15 14.0
2019-Dec-10 04:36 183 9 gusting 16 13.8
2019-Dec-10 04:30 186 9 gusting 15 13.4
2019-Dec-10 04:24 181 8 gusting 16 13.1
2019-Dec-10 04:18 177 7 gusting 13 12.8
2019-Dec-10 04:12 179 7 gusting 13 12.4
2019-Dec-10 04:06 176 6 gusting 13 12.2
2019-Dec-10 04:00 177 6 gusting 12 12.0
2019-Dec-10 03:54 180 7 gusting 12 12.0
2019-Dec-10 03:48 176 6 gusting 12 11.9
2019-Dec-10 03:42 174 6 gusting 12 11.8
2019-Dec-10 03:36 171 6 gusting 12 11.7
2019-Dec-10 03:30 172 5 gusting 12 11.6
2019-Dec-10 03:24 181 5 gusting 10 11.6
2019-Dec-10 03:18 176 5 gusting 9 11.5
2019-Dec-10 03:12 178 5 gusting 10 11.5
2019-Dec-10 03:06 179 5 gusting 10 11.5
2019-Dec-10 03:00 184 6 gusting 10 11.5
2019-Dec-10 02:54 184 5 gusting 8 11.5
2019-Dec-10 02:48 186 7 gusting 11 11.6
2019-Dec-10 02:42 185 7 gusting 12 11.5
2019-Dec-10 02:36 186 8 gusting 12 11.5
2019-Dec-10 02:30 183 7 gusting 13 11.4
2019-Dec-10 02:24 182 6 gusting 11 11.3
2019-Dec-10 02:18 184 6 gusting 12 11.4
2019-Dec-10 02:12 181 7 gusting 12 11.4
2019-Dec-10 02:06 183 7 gusting 13 11.3
2019-Dec-10 02:00 183 7 gusting 12 11.3
2019-Dec-10 01:54 181 6 gusting 14 11.3
2019-Dec-10 01:48 179 6 gusting 12 11.2
2019-Dec-10 01:42 183 7 gusting 11 11.2
2019-Dec-10 01:36 183 8 gusting 14 11.4
2019-Dec-10 01:30 178 8 gusting 16 11.6
2019-Dec-10 01:24 180 8 gusting 16 11.6
2019-Dec-10 01:18 175 8 gusting 16 11.7
2019-Dec-10 01:12 177 9 gusting 17 11.6
2019-Dec-10 01:06 176 9 gusting 18 11.6
2019-Dec-10 01:00 179 8 gusting 17 11.6
2019-Dec-10 00:54 177 9 gusting 17 11.7
2019-Dec-10 00:48 175 9 gusting 19 11.9
2019-Dec-10 00:42 178 9 gusting 17 11.9
2019-Dec-10 00:36 175 9 gusting 20 11.8
2019-Dec-10 00:30 175 8 gusting 15 11.8
2019-Dec-10 00:24 174 8 gusting 16 11.8
2019-Dec-10 00:18 177 8 gusting 16 11.7
2019-Dec-10 00:12 170 7 gusting 16 11.6
2019-Dec-10 00:06 159 6 gusting 15 11.4
2019-Dec-10 00:00 162 4 gusting 17 11.4
2019-Dec-09 23:54 131 5 gusting 14 11.5
2019-Dec-09 23:48 157 5 gusting 14 11.5
2019-Dec-09 23:42 151 4 gusting 13 11.4
2019-Dec-09 23:36 142 5 gusting 14 11.4
2019-Dec-09 23:30 143 4 gusting 16 11.3
2019-Dec-09 23:24 135 4 gusting 15 11.2
2019-Dec-09 23:18 137 4 gusting 13 11.3
2019-Dec-09 23:12 150 4 gusting 14 11.4
2019-Dec-09 23:06 133 4 gusting 12 11.6
2019-Dec-09 23:00 142 5 gusting 14 11.9
2019-Dec-09 22:54 169 6 gusting 17 12.0
2019-Dec-09 22:48 173 6 gusting 16 12.0
2019-Dec-09 22:42 169 6 gusting 16 11.8
2019-Dec-09 22:36 169 6 gusting 13 11.9
2019-Dec-09 22:30 172 7 gusting 14 11.8
2019-Dec-09 22:24 175 7 gusting 14 11.7
2019-Dec-09 22:18 178 7 gusting 13 11.3
2019-Dec-09 22:12 172 4 gusting 12 10.8
2019-Dec-09 22:06 119 3 gusting 10 10.8
2019-Dec-09 22:00 140 4 gusting 12 10.5
2019-Dec-09 21:54 115 3 gusting 9 10.3
2019-Dec-09 21:48 133 3 gusting 12 10.0
2019-Dec-09 21:42 115 3 gusting 10 9.9
2019-Dec-09 21:36 127 3 gusting 7 9.9
2019-Dec-09 21:30 128 3 gusting 9 9.8
2019-Dec-09 21:24 123 4 gusting 10 9.8
2019-Dec-09 21:18 113 3 gusting 8 9.9
2019-Dec-09 21:12 123 4 gusting 10 9.8
2019-Dec-09 21:06 113 3 gusting 9 9.9
2019-Dec-09 21:00 103 3 gusting 9 10.0
2019-Dec-09 20:54 105 2 gusting 6 9.9
2019-Dec-09 20:48 104 2 gusting 4 10.0
2019-Dec-09 20:42 102 2 gusting 3 10.1
2019-Dec-09 20:36 105 2 gusting 5 10.0
2019-Dec-09 20:30 112 2 gusting 4 10.1
2019-Dec-09 20:24 104 2 gusting 4 10.1
2019-Dec-09 20:18 110 2 gusting 4 10.0
2019-Dec-09 20:12 101 1 gusting 3 10.3
2019-Dec-09 20:06 142 1 gusting 3 10.5
2019-Dec-09 20:00 197 1 gusting 2 10.5